Time;durP1;ratioP1;P1;durP2;ratioP2;P2;SDS_P1;SDS_P2;PMS_P1;PMS_P2;Temp;Humidity;BMP_temperature;BMP_pressure;BME280_temperature;BME280_humidity;BME280_pressure;Samples;Min_cycle;Max_cycle;Signal;HPM_P1;HPM_P2
2022/11/25 00:01:44;;;;;;;;;;;;;;;;;;5055505;28;19925;-79
2022/11/25 00:04:11;;;;;;;;;;;;;;;;;;5055094;28;20393;-79
2022/11/25 00:06:38;;;;;;;;;;;;;;;;;;5055154;28;20039;-79
2022/11/25 00:09:06;;;;;;;;;;;;;;;;;;5055172;28;19964;-79
2022/11/25 00:11:34;;;;;;;;;;;;;;;;;;5056979;28;20441;-79
2022/11/25 00:14:00;;;;;;;;;;;;;;;;;;5058435;28;19982;-79
2022/11/25 00:16:26;;;;;;;;;;;;;;;;;;5058588;28;20360;-79
2022/11/25 00:18:54;;;;;;;;;;;;;;;;;;5056816;28;19925;-78
2022/11/25 00:21:22;;;;;;;;;;;;;;;;;;5056496;28;20383;-79
2022/11/25 00:23:53;;;;;;;;;;;;;;;;;;5057607;28;19932;-78
2022/11/25 00:26:20;;;;;;;;;;;;;;;;;;5051079;28;19925;-79
2022/11/25 00:28:46;;;;;;;;;;;;;;;;;;5057560;28;20091;-79
2022/11/25 00:31:14;;;;;;;;;;;;;;;;;;5056777;28;19925;-80
2022/11/25 00:33:41;;;;;;;;;;;;;;;;;;5057953;28;19980;-77
2022/11/25 00:36:12;;;;;;;;;;;;;;;;;;5057791;28;19987;-79
2022/11/25 00:38:40;;;;;;;;;;;;;;;;;;5060104;28;19925;-79
2022/11/25 00:46:35;;;;;;;;;;;;;;;;;;5041363;28;20002;-78
2022/11/25 00:49:01;;;;;;;;;;;;;;;;;;5040663;28;20008;-79
2022/11/25 00:51:28;;;;;;;;;;;;;;;;;;5041398;28;20012;-79
2022/11/25 00:53:55;;;;;;;;;;;;;;;;;;5041132;28;20119;-78
2022/11/25 00:56:22;;;;;;;;;;;;;;;;;;5041631;28;20016;-78
2022/11/25 00:58:49;;;;;;;;;;;;;;;;;;5047241;28;19968;-79
2022/11/25 01:01:15;;;;;;;;;;;;;;;;;;5060546;28;19924;-79
2022/11/25 01:03:42;;;;;;;;;;;;;;;;;;5061610;28;20020;-78
2022/11/25 01:06:10;;;;;;;;;;;;;;;;;;5061290;28;19992;-80
2022/11/25 01:08:37;;;;;;;;;;;;;;;;;;5063400;28;19984;-79
2022/11/25 01:11:05;;;;;;;;;;;;;;;;;;5070464;28;19924;-78
2022/11/25 01:13:32;;;;;;;;;;;;;;;;;;5071623;28;19925;-78
2022/11/25 01:16:00;;;;;;;;;;;;;;;;;;5070225;28;20004;-78
2022/11/25 01:18:27;;;;;;;;;;;;;;;;;;5062325;28;20007;-78
2022/11/25 01:20:54;;;;;;;;;;;;;;;;;;5060533;28;19925;-78
2022/11/25 01:23:20;;;;;;;;;;;;;;;;;;5059809;28;20019;-78
2022/11/25 01:25:46;;;;;;;;;;;;;;;;;;5060432;28;20014;-79
2022/11/25 01:28:14;;;;;;;;;;;;;;;;;;5061184;28;19925;-79
2022/11/25 01:30:41;;;;;;;;;;;;;;;;;;5059893;28;20467;-78
2022/11/25 01:33:07;;;;;;;;;;;;;;;;;;5059934;28;19925;-79
2022/11/25 01:35:36;;;;;;;;;;;;;;;;;;5060734;28;20007;-79
2022/11/25 01:38:02;;;;;;;;;;;;;;;;;;5059955;28;20023;-78
2022/11/25 01:40:29;;;;;;;;;;;;;;;;;;5060536;28;19932;-79
2022/11/25 01:42:55;;;;;;;;;;;;;;;;;;5061302;28;20011;-79
2022/11/25 01:45:36;;;;;;;;;;;;;;;;;;5061159;28;20015;-79
2022/11/25 01:48:07;;;;;;;;;;;;;;;;;;5062735;28;20021;-79
2022/11/25 01:50:34;;;;;;;;;;;;;;;;;;5057353;28;19983;-79
2022/11/25 01:53:01;;;;;;;;;;;;;;;;;;5057043;28;20019;-79
2022/11/25 01:55:29;;;;;;;;;;;;;;;;;;5057283;28;19924;-79
2022/11/25 01:57:57;;;;;;;;;;;;;;;;;;5056830;28;19924;-78
2022/11/25 02:00:24;;;;;;;;;;;;;;;;;;5059247;28;19928;-79
2022/11/25 02:02:54;;;;;;;;;;;;;;;;;;5059416;28;19980;-78
2022/11/25 02:05:24;;;;;;;;;;;;;;;;;;5058604;28;20016;-78
2022/11/25 02:07:52;;;;;;;;;;;;;;;;;;5058094;28;19932;-79
2022/11/25 02:10:21;;;;;;;;;;;;;;;;;;5057274;28;19984;-78
2022/11/25 02:12:47;;;;;;;;;;;;;;;;;;5056849;28;19974;-77
2022/11/25 02:15:15;;;;;;;;;;;;;;;;;;5057791;28;19995;-79
2022/11/25 02:17:42;;;;;;;;;;;;;;;;;;5056626;28;19997;-79
2022/11/25 02:20:11;;;;;;;;;;;;;;;;;;5042470;28;19925;-79
2022/11/25 02:22:44;;;;;;;;;;;;;;;;;;5057016;28;20016;-79
2022/11/25 02:25:16;;;;;;;;;;;;;;;;;;5056976;28;20439;-79
2022/11/25 02:27:44;;;;;;;;;;;;;;;;;;5056883;28;19975;-79
2022/11/25 02:30:11;;;;;;;;;;;;;;;;;;5057217;28;19931;-79
2022/11/25 02:32:42;;;;;;;;;;;;;;;;;;5057514;28;20402;-79
2022/11/25 02:35:23;;;;;;;;;;;;;;;;;;5057077;28;20003;-80
2022/11/25 02:37:50;;;;;;;;;;;;;;;;;;5037140;28;19989;-78
2022/11/25 02:40:18;;;;;;;;;;;;;;;;;;5038420;28;20478;-78
2022/11/25 02:42:45;;;;;;;;;;;;;;;;;;5037940;28;19983;-79
2022/11/25 02:45:13;;;;;;;;;;;;;;;;;;5037679;28;19975;-79
2022/11/25 02:47:40;;;;;;;;;;;;;;;;;;5050945;28;20015;-77
2022/11/25 02:50:07;;;;;;;;;;;;;;;;;;5058659;28;20000;-77
2022/11/25 02:52:33;;;;;;;;;;;;;;;;;;5058815;28;20011;-78
2022/11/25 02:55:00;;;;;;;;;;;;;;;;;;5059339;28;19925;-79
2022/11/25 02:57:28;;;;;;;;;;;;;;;;;;5059515;28;20008;-78
2022/11/25 02:59:54;;;;;;;;;;;;;;;;;;5060354;28;20011;-78
2022/11/25 03:02:21;;;;;;;;;;;;;;;;;;5059677;28;20015;-78
2022/11/25 03:04:47;;;;;;;;;;;;;;;;;;5060659;28;19984;-78
2022/11/25 03:07:13;;;;;;;;;;;;;;;;;;5059776;28;20079;-77
2022/11/25 03:09:40;;;;;;;;;;;;;;;;;;5058475;28;19960;-78
2022/11/25 03:12:21;;;;;;;;;;;;;;;;;;5058243;28;20023;-78
2022/11/25 03:14:49;;;;;;;;;;;;;;;;;;5059297;28;19925;-78
2022/11/25 03:17:15;;;;;;;;;;;;;;;;;;5058734;28;19953;-78
2022/11/25 03:19:42;;;;;;;;;;;;;;;;;;5058926;28;19925;-78
2022/11/25 03:22:08;;;;;;;;;;;;;;;;;;5058354;28;20016;-78
2022/11/25 03:24:35;;;;;;;;;;;;;;;;;;5059036;28;19956;-79
2022/11/25 03:27:01;;;;;;;;;;;;;;;;;;5058204;28;20391;-79
2022/11/25 03:29:28;;;;;;;;;;;;;;;;;;5059155;28;19931;-78
2022/11/25 03:31:55;;;;;;;;;;;;;;;;;;5057711;28;20019;-78
2022/11/25 03:34:22;;;;;;;;;;;;;;;;;;5059116;28;19931;-79
2022/11/25 03:36:48;;;;;;;;;;;;;;;;;;5059850;28;20594;-79
2022/11/25 03:39:15;;;;;;;;;;;;;;;;;;5059406;28;19925;-79
2022/11/25 03:41:41;;;;;;;;;;;;;;;;;;5059153;28;20006;-80
2022/11/25 03:44:08;;;;;;;;;;;;;;;;;;5059234;28;20106;-78
2022/11/25 03:46:34;;;;;;;;;;;;;;;;;;5058845;28;19925;-79
2022/11/25 03:49:02;;;;;;;;;;;;;;;;;;5058975;28;20011;-79
2022/11/25 03:51:28;;;;;;;;;;;;;;;;;;5058765;28;19960;-77
2022/11/25 03:53:55;;;;;;;;;;;;;;;;;;5058510;28;20094;-78
2022/11/25 03:56:21;;;;;;;;;;;;;;;;;;5058103;28;20015;-78
2022/11/25 03:58:48;;;;;;;;;;;;;;;;;;5058073;28;20339;-77
2022/11/25 04:01:14;;;;;;;;;;;;;;;;;;5057478;28;20291;-78
2022/11/25 04:03:41;;;;;;;;;;;;;;;;;;5037919;28;20324;-78
2022/11/25 04:06:08;;;;;;;;;;;;;;;;;;5048039;28;19925;-80
2022/11/25 04:08:35;;;;;;;;;;;;;;;;;;5057927;28;20012;-79
2022/11/25 04:11:01;;;;;;;;;;;;;;;;;;5058686;28;20000;-78
2022/11/25 04:13:27;;;;;;;;;;;;;;;;;;5057570;28;19931;-78
2022/11/25 04:15:54;;;;;;;;;;;;;;;;;;5058188;28;19968;-79
2022/11/25 04:18:20;;;;;;;;;;;;;;;;;;5057766;28;20015;-78
2022/11/25 04:20:47;;;;;;;;;;;;;;;;;;5057602;28;19925;-78
2022/11/25 04:23:15;;;;;;;;;;;;;;;;;;5058093;28;20017;-78
2022/11/25 04:25:41;;;;;;;;;;;;;;;;;;5058149;28;19925;-78
2022/11/25 04:28:08;;;;;;;;;;;;;;;;;;5057548;28;20011;-79
2022/11/25 04:30:34;;;;;;;;;;;;;;;;;;5058320;28;20008;-78
2022/11/25 04:33:00;;;;;;;;;;;;;;;;;;5057920;28;20016;-78
2022/11/25 04:35:27;;;;;;;;;;;;;;;;;;5057659;28;19968;-79
2022/11/25 04:37:54;;;;;;;;;;;;;;;;;;5058044;28;20011;-79
2022/11/25 04:40:22;;;;;;;;;;;;;;;;;;5058198;28;19925;-79
2022/11/25 04:42:48;;;;;;;;;;;;;;;;;;5056007;28;20073;-79
2022/11/25 04:45:16;;;;;;;;;;;;;;;;;;5057160;28;19956;-79
2022/11/25 04:47:42;;;;;;;;;;;;;;;;;;5055638;28;20023;-78
2022/11/25 04:50:12;;;;;;;;;;;;;;;;;;5079181;22;20015;-77
2022/11/25 04:52:38;;;;;;;;;;;;;;;;;;5075867;28;20015;-78
2022/11/25 04:55:05;;;;;;;;;;;;;;;;;;5074586;28;19963;-78
2022/11/25 04:57:33;;;;;;;;;;;;;;;;;;5074557;28;20356;-77
2022/11/25 04:59:59;;;;;;;;;;;;;;;;;;5075274;28;19924;-77
2022/11/25 05:02:26;;;;;;;;;;;;;;;;;;5072893;28;20280;-77
2022/11/25 05:04:54;;;;;;;;;;;;;;;;;;5072588;28;20011;-77
2022/11/25 05:07:21;;;;;;;;;;;;;;;;;;5052577;28;19948;-77
2022/11/25 05:09:48;;;;;;;;;;;;;;;;;;5052576;28;20036;-77
2022/11/25 05:12:16;;;;;;;;;;;;;;;;;;5072031;28;19978;-77
2022/11/25 05:14:44;;;;;;;;;;;;;;;;;;5072101;28;19981;-77
2022/11/25 05:17:12;;;;;;;;;;;;;;;;;;5071673;28;19925;-77
2022/11/25 05:19:39;;;;;;;;;;;;;;;;;;5071771;28;20031;-77
2022/11/25 05:22:05;;;;;;;;;;;;;;;;;;5072474;28;20294;-77
2022/11/25 05:24:31;;;;;;;;;;;;;;;;;;5072281;28;19924;-77
2022/11/25 05:26:58;;;;;;;;;;;;;;;;;;5074742;28;19928;-77
2022/11/25 05:29:24;;;;;;;;;;;;;;;;;;5077400;28;20296;-77
2022/11/25 05:31:52;;;;;;;;;;;;;;;;;;5080273;28;19982;-77
2022/11/25 05:34:19;;;;;;;;;;;;;;;;;;5081070;28;19924;-77
2022/11/25 05:36:45;;;;;;;;;;;;;;;;;;5076258;28;20007;-77
2022/11/25 05:39:11;;;;;;;;;;;;;;;;;;5075639;28;19931;-77
2022/11/25 05:41:38;;;;;;;;;;;;;;;;;;5075854;28;20371;-77
2022/11/25 05:44:05;;;;;;;;;;;;;;;;;;5075597;28;20339;-77
2022/11/25 05:46:31;;;;;;;;;;;;;;;;;;5076316;28;19924;-77
2022/11/25 05:48:59;;;;;;;;;;;;;;;;;;5055566;28;20024;-77
2022/11/25 05:51:27;;;;;;;;;;;;;;;;;;5056188;28;19925;-77
2022/11/25 05:53:53;;;;;;;;;;;;;;;;;;5074400;28;20015;-77
2022/11/25 05:56:20;;;;;;;;;;;;;;;;;;5075694;28;19936;-77
2022/11/25 05:58:46;;;;;;;;;;;;;;;;;;5074977;28;19971;-78
2022/11/25 06:01:14;;;;;;;;;;;;;;;;;;5075427;28;20003;-78
2022/11/25 06:03:40;;;;;;;;;;;;;;;;;;5069623;28;19925;-78
2022/11/25 06:06:09;;;;;;;;;;;;;;;;;;5074889;28;20019;-77
2022/11/25 06:08:36;;;;;;;;;;;;;;;;;;5074426;28;19930;-79
2022/11/25 06:11:04;;;;;;;;;;;;;;;;;;5074899;28;19968;-79
2022/11/25 06:13:30;;;;;;;;;;;;;;;;;;5073533;28;20382;-78
2022/11/25 06:15:57;;;;;;;;;;;;;;;;;;5076836;28;20354;-78
2022/11/25 06:18:23;;;;;;;;;;;;;;;;;;5078505;28;19924;-76
2022/11/25 06:20:55;;;;;;;;;;;;;;;;;;5076852;28;20470;-77
2022/11/25 06:23:23;;;;;;;;;;;;;;;;;;5076058;28;19924;-78
2022/11/25 06:25:50;;;;;;;;;;;;;;;;;;5075685;28;19930;-78
2022/11/25 06:28:16;;;;;;;;;;;;;;;;;;5080844;28;20027;-78
2022/11/25 06:30:42;;;;;;;;;;;;;;;;;;5077970;28;20011;-78
2022/11/25 06:33:09;;;;;;;;;;;;;;;;;;5074675;28;19925;-76
2022/11/25 06:35:35;;;;;;;;;;;;;;;;;;5076292;28;19964;-77
2022/11/25 06:38:03;;;;;;;;;;;;;;;;;;5076844;28;20431;-77
2022/11/25 06:40:31;;;;;;;;;;;;;;;;;;5076641;28;19925;-77
2022/11/25 06:42:57;;;;;;;;;;;;;;;;;;5076136;28;19935;-77
2022/11/25 06:45:24;;;;;;;;;;;;;;;;;;5075887;28;20305;-77
2022/11/25 06:47:50;;;;;;;;;;;;;;;;;;5075621;28;19924;-78
2022/11/25 06:50:17;;;;;;;;;;;;;;;;;;5076043;28;19963;-78
2022/11/25 06:52:43;;;;;;;;;;;;;;;;;;5076615;28;19925;-77
2022/11/25 06:55:10;;;;;;;;;;;;;;;;;;5076788;28;20015;-77
2022/11/25 06:57:38;;;;;;;;;;;;;;;;;;5076648;28;19924;-77
2022/11/25 07:00:05;;;;;;;;;;;;;;;;;;5075924;28;19931;-77
2022/11/25 07:02:31;;;;;;;;;;;;;;;;;;5075750;28;20030;-77
2022/11/25 07:04:57;;;;;;;;;;;;;;;;;;5075586;28;20003;-77
2022/11/25 07:07:24;;;;;;;;;;;;;;;;;;5067582;28;19924;-77
2022/11/25 07:09:50;;;;;;;;;;;;;;;;;;5076322;28;19975;-81
2022/11/25 07:12:17;;;;;;;;;;;;;;;;;;5078352;28;19928;-77
2022/11/25 07:14:45;;;;;;;;;;;;;;;;;;5074147;28;19971;-77
2022/11/25 07:17:11;;;;;;;;;;;;;;;;;;5073478;28;20011;-77
2022/11/25 07:19:39;;;;;;;;;;;;;;;;;;5074682;28;19925;-77
2022/11/25 07:22:05;;;;;;;;;;;;;;;;;;5075025;28;20011;-77
2022/11/25 07:24:32;;;;;;;;;;;;;;;;;;5074138;28;19925;-77
2022/11/25 07:26:59;;;;;;;;;;;;;;;;;;5075080;28;20019;-76
2022/11/25 07:29:25;;;;;;;;;;;;;;;;;;5074883;28;19924;-76
2022/11/25 07:31:55;;;;;;;;;;;;;;;;;;5075834;28;19928;-75
2022/11/25 07:34:22;;;;;;;;;;;;;;;;;;5076958;28;19924;-76
2022/11/25 07:36:49;;;;;;;;;;;;;;;;;;5075559;28;19928;-75
2022/11/25 07:39:17;;;;;;;;;;;;;;;;;;5075142;28;19946;-76
2022/11/25 07:41:49;;;;;;;;;;;;;;;;;;5075070;28;20015;-76
2022/11/25 07:44:17;;;;;;;;;;;;;;;;;;5075304;28;19924;-76
2022/11/25 07:46:46;;;;;;;;;;;;;;;;;;5070065;28;19939;-77
2022/11/25 07:49:16;;;;;;;;;;;;;;;;;;5065707;28;19925;-77
2022/11/25 07:51:44;;;;;;;;;;;;;;;;;;5061251;28;19944;-75
2022/11/25 07:54:11;;;;;;;;;;;;;;;;;;5066023;28;20319;-77
2022/11/25 07:56:39;;;;;;;;;;;;;;;;;;5063205;28;19964;-76
2022/11/25 07:59:06;;;;;;;;;;;;;;;;;;5070332;28;19931;-78
2022/11/25 08:01:35;;;;;;;;;;;;;;;;;;5071391;28;19950;-78
2022/11/25 08:04:03;;;;;;;;;;;;;;;;;;5076942;28;19947;-83
2022/11/25 08:06:30;;;;;;;;;;;;;;;;;;5075758;28;19987;-77
2022/11/25 08:08:58;;;;;;;;;;;;;;;;;;5065993;28;19956;-80
2022/11/25 08:11:27;;;;;;;;;;;;;;;;;;5075364;28;19925;-76
2022/11/25 08:13:53;;;;;;;;;;;;;;;;;;5076105;28;20011;-78
2022/11/25 08:16:21;;;;;;;;;;;;;;;;;;5075652;28;19928;-80
2022/11/25 08:18:48;;;;;;;;;;;;;;;;;;5075557;28;20011;-80
2022/11/25 08:21:15;;;;;;;;;;;;;;;;;;5077015;28;19925;-79
2022/11/25 08:23:46;;;;;;;;;;;;;;;;;;5063371;28;19928;-78
2022/11/25 08:26:13;;;;;;;;;;;;;;;;;;5063799;28;19925;-77
2022/11/25 08:28:41;;;;;;;;;;;;;;;;;;5066577;28;19978;-78
2022/11/25 08:31:08;;;;;;;;;;;;;;;;;;5065137;28;19931;-77
2022/11/25 08:33:35;;;;;;;;;;;;;;;;;;5071987;28;19975;-77
2022/11/25 08:36:01;;;;;;;;;;;;;;;;;;5071153;28;20027;-77
2022/11/25 08:38:28;;;;;;;;;;;;;;;;;;5068788;28;19924;-77
2022/11/25 08:40:56;;;;;;;;;;;;;;;;;;5061448;28;20345;-76
2022/11/25 08:43:23;;;;;;;;;;;;;;;;;;5071580;28;19928;-76
2022/11/25 08:45:50;;;;;;;;;;;;;;;;;;5070996;28;20037;-76
2022/11/25 08:48:18;;;;;;;;;;;;;;;;;;5066622;28;19974;-77
2022/11/25 08:50:45;;;;;;;;;;;;;;;;;;5052552;28;19925;-76
2022/11/25 08:53:12;;;;;;;;;;;;;;;;;;5066514;28;20405;-77
2022/11/25 08:55:39;;;;;;;;;;;;;;;;;;5069282;28;20433;-77
2022/11/25 08:58:08;;;;;;;;;;;;;;;;;;5079740;28;19928;-76
2022/11/25 09:00:35;;;;;;;;;;;;;;;;;;5080091;28;20267;-76
2022/11/25 09:03:01;;;;;;;;;;;;;;;;;;5088090;28;19928;-76
2022/11/25 09:05:34;;;;;;;;;;;;;;;;;;5072254;28;20022;-76
2022/11/25 09:08:03;;;;;;;;;;;;;;;;;;5075391;28;19992;-75
2022/11/25 09:10:29;;;;;;;;;;;;;;;;;;5074439;28;19962;-76
2022/11/25 09:12:56;;;;;;;;;;;;;;;;;;5074857;28;20015;-75
2022/11/25 09:15:24;;;;;;;;;;;;;;;;;;5075139;28;19970;-76
2022/11/25 09:17:57;;;;;;;;;;;;;;;;;;5075232;28;19928;-77
2022/11/25 09:20:23;;;;;;;;;;;;;;;;;;5077196;28;19986;-77
2022/11/25 09:22:49;;;;;;;;;;;;;;;;;;5078605;28;20458;-77
2022/11/25 09:25:16;;;;;;;;;;;;;;;;;;5077084;28;19928;-76
2022/11/25 09:27:42;;;;;;;;;;;;;;;;;;5076835;28;20011;-77
2022/11/25 09:30:09;;;;;;;;;;;;;;;;;;5076374;28;20383;-76
2022/11/25 09:32:37;;;;;;;;;;;;;;;;;;5070173;28;20011;-77
2022/11/25 09:35:04;;;;;;;;;;;;;;;;;;5066305;28;20337;-77
2022/11/25 09:37:30;;;;;;;;;;;;;;;;;;5061899;28;19925;-77
2022/11/25 09:39:57;;;;;;;;;;;;;;;;;;5063637;28;20019;-76
2022/11/25 09:48:06;;;;;;;;;;;;;;;;;;5073744;28;19959;-77
2022/11/25 09:50:41;;;;;;;;;;;;;;;;;;5072783;28;19924;-77
2022/11/25 09:53:11;;;;;;;;;;;;;;;;;;5072830;28;19939;-77
2022/11/25 09:55:39;;;;;;;;;;;;;;;;;;5074006;28;19935;-76
2022/11/25 09:58:15;;;;;;;;;;;;;;;;;;5058943;28;19931;-75
2022/11/25 10:00:42;;;;;;;;;;;;;;;;;;5066506;28;20019;-77
2022/11/25 10:03:16;;;;;;;;;;;;;;;;;;5072631;28;19954;-77
2022/11/25 10:05:46;;;;;;;;;;;;;;;;;;5071820;28;19987;-76
2022/11/25 10:08:15;;;;;;;;;;;;;;;;;;5072989;28;19935;-76
2022/11/25 10:10:44;;;;;;;;;;;;;;;;;;5061897;28;20157;-76
2022/11/25 10:13:13;;;;;;;;;;;;;;;;;;5072488;28;20023;-76
2022/11/25 10:15:43;;;;;;;;;;;;;;;;;;5073150;28;20286;-79
2022/11/25 10:18:15;;;;;;;;;;;;;;;;;;5070117;28;19967;-78
2022/11/25 10:20:42;;;;;;;;;;;;;;;;;;5073598;28;19951;-78
2022/11/25 10:23:12;;;;;;;;;;;;;;;;;;5074277;28;19931;-77
2022/11/25 10:25:39;;;;;;;;;;;;;;;;;;5076712;28;20019;-78
2022/11/25 10:28:12;;;;;;;;;;;;;;;;;;5074901;28;19931;-76
2022/11/25 10:30:41;;;;;;;;;;;;;;;;;;5071792;28;20490;-77
2022/11/25 10:33:13;;;;;;;;;;;;;;;;;;5064822;28;19925;-77
2022/11/25 10:35:43;;;;;;;;;;;;;;;;;;5070875;28;20024;-78
2022/11/25 10:38:13;;;;;;;;;;;;;;;;;;5072991;28;19925;-77
2022/11/25 10:40:39;;;;;;;;;;;;;;;;;;5069946;28;19963;-78
2022/11/25 10:43:11;;;;;;;;;;;;;;;;;;5070733;28;19970;-77
2022/11/25 10:45:40;;;;;;;;;;;;;;;;;;5068726;28;19928;-77
2022/11/25 10:48:14;;;;;;;;;;;;;;;;;;5069777;28;20004;-77
2022/11/25 10:50:50;;;;;;;;;;;;;;;;;;5072999;28;19967;-79
2022/11/25 10:53:17;;;;;;;;;;;;;;;;;;5053278;28;20374;-78
2022/11/25 10:55:56;;;;;;;;;;;;;;;;;;5052462;28;19972;-76
2022/11/25 10:58:26;;;;;;;;;;;;;;;;;;5060445;28;19986;-77
2022/11/25 11:01:01;;;;;;;;;;;;;;;;;;5071625;28;19929;-77
2022/11/25 11:03:27;;;;;;;;;;;;;;;;;;5071291;28;20019;-77
2022/11/25 11:05:55;;;;;;;;;;;;;;;;;;5071565;28;19978;-77
2022/11/25 11:08:23;;;;;;;;;;;;;;;;;;5072131;28;20019;-79
2022/11/25 11:11:05;;;;;;;;;;;;;;;;;;5075779;28;20435;-79
2022/11/25 11:13:32;;;;;;;;;;;;;;;;;;5075133;28;19924;-77
2022/11/25 11:15:58;;;;;;;;;;;;;;;;;;5075758;28;19925;-79
2022/11/25 11:18:26;;;;;;;;;;;;;;;;;;5075374;28;19924;-80
2022/11/25 11:20:54;;;;;;;;;;;;;;;;;;5075597;28;19932;-79
2022/11/25 11:23:22;;;;;;;;;;;;;;;;;;5074428;28;20019;-78
2022/11/25 11:25:59;;;;;;;;;;;;;;;;;;5076160;28;20008;-78
2022/11/25 11:28:27;;;;;;;;;;;;;;;;;;5076736;28;19963;-79
2022/11/25 11:30:56;;;;;;;;;;;;;;;;;;5081656;28;19979;-77
2022/11/25 11:33:29;;;;;;;;;;;;;;;;;;5071062;28;19939;-77
2022/11/25 11:35:58;;;;;;;;;;;;;;;;;;5071950;28;19978;-76
2022/11/25 11:38:31;;;;;;;;;;;;;;;;;;5090458;28;19924;-75
2022/11/25 11:41:02;;;;;;;;;;;;;;;;;;5090410;28;19925;-77
2022/11/25 11:43:37;;;;;;;;;;;;;;;;;;5090788;28;19920;-77
2022/11/25 11:46:11;;;;;;;;;;;;;;;;;;5090089;28;19960;-77
2022/11/25 11:48:39;;;;;;;;;;;;;;;;;;5086566;28;19947;-77
2022/11/25 11:51:10;;;;;;;;;;;;;;;;;;5076791;28;19932;-78
2022/11/25 11:53:43;;;;;;;;;;;;;;;;;;5073340;28;20423;-79
2022/11/25 11:56:12;;;;;;;;;;;;;;;;;;5066949;28;19924;-79
2022/11/25 11:58:49;;;;;;;;;;;;;;;;;;5066372;28;20354;-79
2022/11/25 12:01:21;;;;;;;;;;;;;;;;;;5065939;28;20408;-79
2022/11/25 12:03:55;;;;;;;;;;;;;;;;;;5064305;28;20630;-80
2022/11/25 12:06:24;;;;;;;;;;;;;;;;;;5064819;28;19925;-79
2022/11/25 12:08:55;;;;;;;;;;;;;;;;;;5065227;28;20350;-79
2022/11/25 12:11:23;;;;;;;;;;;;;;;;;;5069445;28;19978;-78
2022/11/25 12:13:52;;;;;;;;;;;;;;;;;;5075209;28;19967;-77
2022/11/25 12:16:21;;;;;;;;;;;;;;;;;;5059044;28;20019;-84
2022/11/25 12:18:50;;;;;;;;;;;;;;;;;;5071641;28;20005;-83
2022/11/25 12:21:23;;;;;;;;;;;;;;;;;;5077314;28;20027;-80
2022/11/25 12:23:56;;;;;;;;;;;;;;;;;;5074355;28;19963;-78
2022/11/25 12:26:25;;;;;;;;;;;;;;;;;;5075380;28;19925;-79
2022/11/25 12:28:55;;;;;;;;;;;;;;;;;;5073520;28;20422;-78
2022/11/25 12:31:24;;;;;;;;;;;;;;;;;;5073927;28;19925;-78
2022/11/25 12:33:57;;;;;;;;;;;;;;;;;;5073149;28;20002;-77
2022/11/25 12:36:27;;;;;;;;;;;;;;;;;;5073906;28;20433;-77
2022/11/25 12:38:56;;;;;;;;;;;;;;;;;;5073928;28;19964;-78
2022/11/25 12:41:25;;;;;;;;;;;;;;;;;;5074751;28;19950;-80
2022/11/25 12:43:56;;;;;;;;;;;;;;;;;;5073390;28;20023;-78
2022/11/25 12:46:25;;;;;;;;;;;;;;;;;;5074162;28;20612;-79
2022/11/25 12:48:53;;;;;;;;;;;;;;;;;;5074832;28;20331;-82
2022/11/25 12:51:37;;;;;;;;;;;;;;;;;;5076001;28;19925;-82
2022/11/25 12:54:13;;;;;;;;;;;;;;;;;;5066539;28;19935;-77
2022/11/25 12:56:50;;;;;;;;;;;;;;;;;;5054178;28;20011;-77
2022/11/25 12:59:34;;;;;;;;;;;;;;;;;;5064052;28;19931;-77
2022/11/25 13:02:06;;;;;;;;;;;;;;;;;;5072180;28;20028;-77
2022/11/25 13:04:40;;;;;;;;;;;;;;;;;;5066558;28;20008;-76
2022/11/25 13:07:14;;;;;;;;;;;;;;;;;;5072342;28;19971;-79
2022/11/25 13:09:59;;;;;;;;;;;;;;;;;;5073073;28;19931;-77
2022/11/25 13:12:31;;;;;;;;;;;;;;;;;;5072825;28;20542;-76
2022/11/25 13:15:03;;;;;;;;;;;;;;;;;;5068651;28;20475;-77
2022/11/25 13:17:32;;;;;;;;;;;;;;;;;;5067114;28;20008;-77
2022/11/25 13:20:13;;;;;;;;;;;;;;;;;;5060912;28;20414;-76
2022/11/25 13:22:40;;;;;;;;;;;;;;;;;;5072495;28;20027;-77
2022/11/25 13:25:21;;;;;;;;;;;;;;;;;;5073157;28;19925;-78
2022/11/25 13:27:56;;;;;;;;;;;;;;;;;;5073119;28;19988;-77
2022/11/25 13:30:35;;;;;;;;;;;;;;;;;;5071890;28;19924;-76
2022/11/25 13:33:24;;;;;;;;;;;;;;;;;;5069551;28;19992;-77
2022/11/25 13:35:52;;;;;;;;;;;;;;;;;;5064125;28;19932;-81
2022/11/25 13:38:46;;;;;;;;;;;;;;;;;;5060161;28;19975;-77
2022/11/25 13:41:24;;;;;;;;;;;;;;;;;;5068464;28;19968;-77
2022/11/25 13:43:58;;;;;;;;;;;;;;;;;;5061734;28;20003;-77
2022/11/25 13:46:29;;;;;;;;;;;;;;;;;;5074230;28;19928;-78
2022/11/25 13:48:55;;;;;;;;;;;;;;;;;;5076703;28;19925;-77
2022/11/25 13:51:22;;;;;;;;;;;;;;;;;;5076121;28;19951;-78
2022/11/25 13:53:51;;;;;;;;;;;;;;;;;;5076529;28;19996;-78
2022/11/25 13:56:25;;;;;;;;;;;;;;;;;;5076647;28;19960;-76
2022/11/25 13:59:10;;;;;;;;;;;;;;;;;;5076034;28;20488;-76
2022/11/25 14:01:37;;;;;;;;;;;;;;;;;;5074877;28;19924;-75
2022/11/25 14:04:05;;;;;;;;;;;;;;;;;;5077159;28;19936;-76
2022/11/25 14:06:38;;;;;;;;;;;;;;;;;;5079938;28;19924;-77
2022/11/25 14:09:05;;;;;;;;;;;;;;;;;;5076477;28;19986;-77
2022/11/25 14:11:50;;;;;;;;;;;;;;;;;;5075293;28;19931;-78
2022/11/25 14:14:26;;;;;;;;;;;;;;;;;;5075890;28;19924;-77
2022/11/25 14:17:00;;;;;;;;;;;;;;;;;;5064835;28;19987;-76
2022/11/25 14:19:38;;;;;;;;;;;;;;;;;;5076054;28;19964;-78
2022/11/25 14:22:12;;;;;;;;;;;;;;;;;;5063442;28;20001;-78
2022/11/25 14:24:40;;;;;;;;;;;;;;;;;;5074656;28;20383;-77
2022/11/25 14:27:14;;;;;;;;;;;;;;;;;;5076143;28;19980;-76
2022/11/25 14:29:42;;;;;;;;;;;;;;;;;;5074186;28;20391;-80
2022/11/25 14:32:10;;;;;;;;;;;;;;;;;;5080140;28;19924;-77
2022/11/25 14:34:39;;;;;;;;;;;;;;;;;;5086041;28;19968;-76
2022/11/25 14:37:09;;;;;;;;;;;;;;;;;;5082566;28;19952;-77
2022/11/25 14:39:39;;;;;;;;;;;;;;;;;;5079091;28;19940;-78
2022/11/25 14:42:07;;;;;;;;;;;;;;;;;;5077178;28;19932;-78
2022/11/25 14:44:39;;;;;;;;;;;;;;;;;;5076336;28;20019;-79
2022/11/25 14:47:06;;;;;;;;;;;;;;;;;;5073328;28;19975;-78
2022/11/25 14:49:45;;;;;;;;;;;;;;;;;;5068068;28;19936;-78
2022/11/25 14:52:15;;;;;;;;;;;;;;;;;;5060326;28;19924;-77
2022/11/25 14:54:43;;;;;;;;;;;;;;;;;;5061707;28;19925;-78
2022/11/25 14:57:09;;;;;;;;;;;;;;;;;;5064862;28;20007;-78
2022/11/25 14:59:38;;;;;;;;;;;;;;;;;;5072705;28;20031;-77
2022/11/25 15:02:04;;;;;;;;;;;;;;;;;;5073449;28;20337;-78
2022/11/25 15:04:31;;;;;;;;;;;;;;;;;;5070730;28;20035;-78
2022/11/25 15:06:59;;;;;;;;;;;;;;;;;;5073840;28;19925;-78
2022/11/25 15:09:27;;;;;;;;;;;;;;;;;;5073653;28;19928;-77
2022/11/25 15:11:55;;;;;;;;;;;;;;;;;;5074329;28;20019;-76
2022/11/25 15:14:24;;;;;;;;;;;;;;;;;;5074012;28;19985;-76
2022/11/25 15:16:52;;;;;;;;;;;;;;;;;;5072882;28;19978;-82
2022/11/25 15:19:20;;;;;;;;;;;;;;;;;;5073005;28;19999;-77
2022/11/25 15:21:47;;;;;;;;;;;;;;;;;;5073752;28;19987;-82
2022/11/25 15:24:22;;;;;;;;;;;;;;;;;;5074120;28;19978;-77
2022/11/25 15:26:50;;;;;;;;;;;;;;;;;;5073715;28;20036;-77
2022/11/25 15:29:17;;;;;;;;;;;;;;;;;;5074008;28;19968;-78
2022/11/25 15:31:46;;;;;;;;;;;;;;;;;;5074423;28;20300;-77
2022/11/25 15:34:14;;;;;;;;;;;;;;;;;;5071822;28;19924;-76
2022/11/25 15:36:41;;;;;;;;;;;;;;;;;;5070780;28;20298;-76
2022/11/25 15:39:15;;;;;;;;;;;;;;;;;;5074274;28;20011;-78
2022/11/25 15:41:42;;;;;;;;;;;;;;;;;;5070387;28;19971;-77
2022/11/25 15:44:16;;;;;;;;;;;;;;;;;;5069911;28;20211;-77
2022/11/25 15:46:50;;;;;;;;;;;;;;;;;;5074994;28;19975;-74
2022/11/25 15:49:18;;;;;;;;;;;;;;;;;;5072391;28;19936;-77
2022/11/25 15:51:50;;;;;;;;;;;;;;;;;;5071162;28;19928;-76
2022/11/25 15:54:18;;;;;;;;;;;;;;;;;;5071373;28;19931;-77
2022/11/25 15:56:47;;;;;;;;;;;;;;;;;;5070978;28;19972;-77
2022/11/25 15:59:32;;;;;;;;;;;;;;;;;;5070254;28;19970;-77
2022/11/25 16:01:59;;;;;;;;;;;;;;;;;;5070990;28;19924;-77
2022/11/25 16:04:27;;;;;;;;;;;;;;;;;;5067325;28;20413;-75
2022/11/25 16:06:54;;;;;;;;;;;;;;;;;;5071195;28;20501;-76
2022/11/25 16:09:21;;;;;;;;;;;;;;;;;;5070548;28;19928;-77
2022/11/25 16:11:48;;;;;;;;;;;;;;;;;;5071125;28;19925;-76
2022/11/25 16:14:18;;;;;;;;;;;;;;;;;;5070567;28;19929;-77
2022/11/25 16:16:44;;;;;;;;;;;;;;;;;;5071462;28;20027;-77
2022/11/25 16:19:20;;;;;;;;;;;;;;;;;;5070843;28;20003;-78
2022/11/25 16:22:01;;;;;;;;;;;;;;;;;;5071357;28;20019;-77
2022/11/25 16:24:36;;;;;;;;;;;;;;;;;;5069029;28;19924;-77
2022/11/25 16:27:04;;;;;;;;;;;;;;;;;;5070334;28;20012;-77
2022/11/25 16:29:32;;;;;;;;;;;;;;;;;;5070984;28;20368;-77
2022/11/25 16:31:58;;;;;;;;;;;;;;;;;;5072332;28;19968;-76
2022/11/25 16:34:25;;;;;;;;;;;;;;;;;;5070551;28;20007;-77
2022/11/25 16:36:52;;;;;;;;;;;;;;;;;;5056714;28;19924;-76
2022/11/25 16:39:20;;;;;;;;;;;;;;;;;;5073495;28;19966;-84
2022/11/25 16:41:54;;;;;;;;;;;;;;;;;;5072473;28;19924;-75
2022/11/25 16:44:22;;;;;;;;;;;;;;;;;;5071509;28;20539;-77
2022/11/25 16:46:48;;;;;;;;;;;;;;;;;;5071827;28;20462;-75
2022/11/25 16:49:15;;;;;;;;;;;;;;;;;;5072191;28;19935;-76
2022/11/25 16:51:42;;;;;;;;;;;;;;;;;;5070342;28;19986;-77
2022/11/25 16:54:08;;;;;;;;;;;;;;;;;;5073410;28;20102;-77
2022/11/25 16:56:37;;;;;;;;;;;;;;;;;;5074084;28;19932;-76
2022/11/25 16:59:04;;;;;;;;;;;;;;;;;;5071288;28;20015;-77
2022/11/25 17:01:30;;;;;;;;;;;;;;;;;;5072613;28;20015;-77
2022/11/25 17:03:57;;;;;;;;;;;;;;;;;;5072059;28;19980;-77
2022/11/25 17:06:24;;;;;;;;;;;;;;;;;;5063752;28;19963;-76
2022/11/25 17:08:51;;;;;;;;;;;;;;;;;;5070135;28;19960;-76